sensor_id;sensor_type;location;lat;lon;timestamp;temperature;humidity
44513;DHT22;30219;50.588;9.504;2023-03-03T00:00:31;0.50;99.90
44513;DHT22;30219;50.588;9.504;2023-03-03T00:03:00;0.50;99.90
44513;DHT22;30219;50.588;9.504;2023-03-03T00:05:26;0.30;99.90
44513;DHT22;30219;50.588;9.504;2023-03-03T00:07:52;0.10;99.90
44513;DHT22;30219;50.588;9.504;2023-03-03T00:10:17;0.00;99.90
44513;DHT22;30219;50.588;9.504;2023-03-03T00:12:47;0.10;99.90
44513;DHT22;30219;50.588;9.504;2023-03-03T00:15:17;0.10;99.90
44513;DHT22;30219;50.588;9.504;2023-03-03T00:17:43;0.20;99.90
44513;DHT22;30219;50.588;9.504;2023-03-03T00:22:53;0.30;99.90
44513;DHT22;30219;50.588;9.504;2023-03-03T00:25:31;0.30;99.90
44513;DHT22;30219;50.588;9.504;2023-03-03T00:28:43;0.40;99.90
44513;DHT22;30219;50.588;9.504;2023-03-03T00:30:46;0.30;99.90
44513;DHT22;30219;50.588;9.504;2023-03-03T00:33:34;0.40;99.90
44513;DHT22;30219;50.588;9.504;2023-03-03T00:35:58;0.30;99.90
44513;DHT22;30219;50.588;9.504;2023-03-03T00:38:31;0.30;99.90
44513;DHT22;30219;50.588;9.504;2023-03-03T00:40:59;0.30;99.90
44513;DHT22;30219;50.588;9.504;2023-03-03T00:43:25;0.30;99.90
44513;DHT22;30219;50.588;9.504;2023-03-03T00:45:56;0.30;99.90
44513;DHT22;30219;50.588;9.504;2023-03-03T00:50:54;0.10;99.90
44513;DHT22;30219;50.588;9.504;2023-03-03T00:53:20;0.20;99.90
44513;DHT22;30219;50.588;9.504;2023-03-03T00:55:47;0.20;99.90
44513;DHT22;30219;50.588;9.504;2023-03-03T00:58:12;0.20;99.90
44513;DHT22;30219;50.588;9.504;2023-03-03T01:00:38;-0.10;99.90
44513;DHT22;30219;50.588;9.504;2023-03-03T01:03:05;-0.20;99.90
44513;DHT22;30219;50.588;9.504;2023-03-03T01:05:31;-0.20;99.90
44513;DHT22;30219;50.588;9.504;2023-03-03T01:07:57;-0.30;99.90
44513;DHT22;30219;50.588;9.504;2023-03-03T01:10:23;-0.20;99.90
44513;DHT22;30219;50.588;9.504;2023-03-03T01:12:49;-0.40;99.90
44513;DHT22;30219;50.588;9.504;2023-03-03T01:15:14;-0.50;99.90
44513;DHT22;30219;50.588;9.504;2023-03-03T01:17:41;-0.40;99.90
44513;DHT22;30219;50.588;9.504;2023-03-03T01:20:07;-0.50;99.90
44513;DHT22;30219;50.588;9.504;2023-03-03T01:22:32;-0.50;99.90
44513;DHT22;30219;50.588;9.504;2023-03-03T01:24:58;-0.50;99.90
44513;DHT22;30219;50.588;9.504;2023-03-03T01:27:23;-0.50;99.90
44513;DHT22;30219;50.588;9.504;2023-03-03T01:29:49;-0.70;99.90
44513;DHT22;30219;50.588;9.504;2023-03-03T01:32:14;-0.80;99.90
44513;DHT22;30219;50.588;9.504;2023-03-03T01:34:40;-0.80;99.90
44513;DHT22;30219;50.588;9.504;2023-03-03T01:37:05;-0.80;99.90
44513;DHT22;30219;50.588;9.504;2023-03-03T01:39:31;-0.80;99.90
44513;DHT22;30219;50.588;9.504;2023-03-03T01:41:56;-0.70;99.90
44513;DHT22;30219;50.588;9.504;2023-03-03T01:44:22;-0.80;99.90
44513;DHT22;30219;50.588;9.504;2023-03-03T01:46:52;-0.90;99.90
44513;DHT22;30219;50.588;9.504;2023-03-03T01:51:49;-0.70;99.90
44513;DHT22;30219;50.588;9.504;2023-03-03T01:54:18;-0.70;99.90
44513;DHT22;30219;50.588;9.504;2023-03-03T01:56:44;-0.70;99.90
44513;DHT22;30219;50.588;9.504;2023-03-03T01:59:20;-0.70;99.90
44513;DHT22;30219;50.588;9.504;2023-03-03T02:17:01;-0.20;99.90
44513;DHT22;30219;50.588;9.504;2023-03-03T02:19:32;-0.10;99.90
44513;DHT22;30219;50.588;9.504;2023-03-03T02:22:00;-0.10;99.90
44513;DHT22;30219;50.588;9.504;2023-03-03T02:24:27;0.00;99.90
44513;DHT22;30219;50.588;9.504;2023-03-03T02:26:55;0.00;99.90
44513;DHT22;30219;50.588;9.504;2023-03-03T02:29:21;0.10;99.90
44513;DHT22;30219;50.588;9.504;2023-03-03T02:31:47;0.10;99.90
44513;DHT22;30219;50.588;9.504;2023-03-03T02:34:12;0.20;99.90
44513;DHT22;30219;50.588;9.504;2023-03-03T02:36:38;0.20;99.90
44513;DHT22;30219;50.588;9.504;2023-03-03T02:39:15;0.20;99.90
44513;DHT22;30219;50.588;9.504;2023-03-03T02:41:59;0.30;99.90
44513;DHT22;30219;50.588;9.504;2023-03-03T02:44:26;0.40;99.90
44513;DHT22;30219;50.588;9.504;2023-03-03T02:46:53;0.40;99.90
44513;DHT22;30219;50.588;9.504;2023-03-03T02:49:20;0.40;99.90
44513;DHT22;30219;50.588;9.504;2023-03-03T02:51:46;0.50;99.90
44513;DHT22;30219;50.588;9.504;2023-03-03T02:54:12;0.50;99.90
44513;DHT22;30219;50.588;9.504;2023-03-03T02:56:37;0.50;99.90
44513;DHT22;30219;50.588;9.504;2023-03-03T02:59:03;0.50;99.90
44513;DHT22;30219;50.588;9.504;2023-03-03T03:01:29;0.50;99.90
44513;DHT22;30219;50.588;9.504;2023-03-03T03:03:56;0.60;99.90
44513;DHT22;30219;50.588;9.504;2023-03-03T03:06:22;0.50;99.90
44513;DHT22;30219;50.588;9.504;2023-03-03T03:08:47;0.60;99.90
44513;DHT22;30219;50.588;9.504;2023-03-03T03:11:13;0.70;99.90
44513;DHT22;30219;50.588;9.504;2023-03-03T03:13:38;0.70;99.90
44513;DHT22;30219;50.588;9.504;2023-03-03T03:16:04;0.60;99.90
44513;DHT22;30219;50.588;9.504;2023-03-03T03:18:30;0.70;99.90
44513;DHT22;30219;50.588;9.504;2023-03-03T03:20:55;0.70;99.90
44513;DHT22;30219;50.588;9.504;2023-03-03T03:23:20;0.70;99.90
44513;DHT22;30219;50.588;9.504;2023-03-03T03:25:46;0.70;99.90
44513;DHT22;30219;50.588;9.504;2023-03-03T03:28:13;0.80;99.90
44513;DHT22;30219;50.588;9.504;2023-03-03T03:30:38;0.70;99.90
44513;DHT22;30219;50.588;9.504;2023-03-03T03:33:04;0.70;99.90
44513;DHT22;30219;50.588;9.504;2023-03-03T03:35:31;0.80;99.90
44513;DHT22;30219;50.588;9.504;2023-03-03T03:37:56;0.70;99.90
44513;DHT22;30219;50.588;9.504;2023-03-03T03:40:21;0.80;99.90
44513;DHT22;30219;50.588;9.504;2023-03-03T03:42:47;0.70;99.90
44513;DHT22;30219;50.588;9.504;2023-03-03T03:45:12;0.70;99.90
44513;DHT22;30219;50.588;9.504;2023-03-03T03:47:40;0.80;99.90
44513;DHT22;30219;50.588;9.504;2023-03-03T03:50:05;0.70;99.90
44513;DHT22;30219;50.588;9.504;2023-03-03T03:52:31;0.70;99.90
44513;DHT22;30219;50.588;9.504;2023-03-03T03:54:56;0.70;99.90
44513;DHT22;30219;50.588;9.504;2023-03-03T03:57:22;0.80;99.90
44513;DHT22;30219;50.588;9.504;2023-03-03T03:59:48;0.80;99.90
44513;DHT22;30219;50.588;9.504;2023-03-03T04:02:14;0.80;99.90
44513;DHT22;30219;50.588;9.504;2023-03-03T04:04:39;0.90;99.90
44513;DHT22;30219;50.588;9.504;2023-03-03T04:07:05;0.90;99.90
44513;DHT22;30219;50.588;9.504;2023-03-03T04:09:30;0.90;99.90
44513;DHT22;30219;50.588;9.504;2023-03-03T04:11:56;0.90;99.90
44513;DHT22;30219;50.588;9.504;2023-03-03T04:14:21;0.90;99.90
44513;DHT22;30219;50.588;9.504;2023-03-03T04:16:46;0.90;99.90
44513;DHT22;30219;50.588;9.504;2023-03-03T04:19:12;0.90;99.90
44513;DHT22;30219;50.588;9.504;2023-03-03T04:21:37;0.80;99.90
44513;DHT22;30219;50.588;9.504;2023-03-03T04:24:03;0.70;99.90
44513;DHT22;30219;50.588;9.504;2023-03-03T04:26:29;0.70;99.90
44513;DHT22;30219;50.588;9.504;2023-03-03T04:28:56;0.70;99.90
44513;DHT22;30219;50.588;9.504;2023-03-03T04:31:21;0.60;99.90
44513;DHT22;30219;50.588;9.504;2023-03-03T04:33:47;0.70;99.90
44513;DHT22;30219;50.588;9.504;2023-03-03T04:36:13;0.80;99.90
44513;DHT22;30219;50.588;9.504;2023-03-03T04:38:38;0.70;99.90
44513;DHT22;30219;50.588;9.504;2023-03-03T04:41:04;0.70;99.90
44513;DHT22;30219;50.588;9.504;2023-03-03T04:43:29;0.70;99.90
44513;DHT22;30219;50.588;9.504;2023-03-03T04:45:55;0.70;99.90
44513;DHT22;30219;50.588;9.504;2023-03-03T04:48:21;0.70;99.90
44513;DHT22;30219;50.588;9.504;2023-03-03T04:50:46;0.70;99.90
44513;DHT22;30219;50.588;9.504;2023-03-03T04:53:11;0.70;99.90
44513;DHT22;30219;50.588;9.504;2023-03-03T04:55:37;0.70;99.90
44513;DHT22;30219;50.588;9.504;2023-03-03T04:58:03;0.70;99.90
44513;DHT22;30219;50.588;9.504;2023-03-03T05:00:28;0.70;99.90
44513;DHT22;30219;50.588;9.504;2023-03-03T05:02:54;0.80;99.90
44513;DHT22;30219;50.588;9.504;2023-03-03T05:05:19;0.80;99.90
44513;DHT22;30219;50.588;9.504;2023-03-03T05:07:45;0.70;99.90
44513;DHT22;30219;50.588;9.504;2023-03-03T05:10:11;0.70;99.90
44513;DHT22;30219;50.588;9.504;2023-03-03T05:12:36;0.80;99.90
44513;DHT22;30219;50.588;9.504;2023-03-03T05:15:02;0.90;99.90
44513;DHT22;30219;50.588;9.504;2023-03-03T05:17:27;0.90;99.90
44513;DHT22;30219;50.588;9.504;2023-03-03T05:19:53;0.90;99.90
44513;DHT22;30219;50.588;9.504;2023-03-03T05:22:21;0.90;99.90
44513;DHT22;30219;50.588;9.504;2023-03-03T05:24:47;0.90;99.90
44513;DHT22;30219;50.588;9.504;2023-03-03T05:27:14;0.90;99.90
44513;DHT22;30219;50.588;9.504;2023-03-03T05:29:39;0.90;99.90
44513;DHT22;30219;50.588;9.504;2023-03-03T05:32:04;0.80;99.90
44513;DHT22;30219;50.588;9.504;2023-03-03T05:34:30;0.90;99.90
44513;DHT22;30219;50.588;9.504;2023-03-03T05:36:55;0.80;99.90
44513;DHT22;30219;50.588;9.504;2023-03-03T05:39:21;0.80;99.90
44513;DHT22;30219;50.588;9.504;2023-03-03T05:41:47;0.80;99.90
44513;DHT22;30219;50.588;9.504;2023-03-03T05:44:13;0.80;99.90
44513;DHT22;30219;50.588;9.504;2023-03-03T05:46:38;0.80;99.90
44513;DHT22;30219;50.588;9.504;2023-03-03T05:49:04;0.80;99.90
44513;DHT22;30219;50.588;9.504;2023-03-03T05:51:29;0.80;99.90
44513;DHT22;30219;50.588;9.504;2023-03-03T05:53:54;0.80;99.90
44513;DHT22;30219;50.588;9.504;2023-03-03T05:56:20;0.80;99.90
44513;DHT22;30219;50.588;9.504;2023-03-03T05:58:45;0.70;99.90
44513;DHT22;30219;50.588;9.504;2023-03-03T06:01:11;0.70;99.90
44513;DHT22;30219;50.588;9.504;2023-03-03T06:03:36;0.70;99.90
44513;DHT22;30219;50.588;9.504;2023-03-03T06:06:02;0.70;99.90
44513;DHT22;30219;50.588;9.504;2023-03-03T06:08:28;0.70;99.90
44513;DHT22;30219;50.588;9.504;2023-03-03T06:10:53;0.80;99.90
44513;DHT22;30219;50.588;9.504;2023-03-03T06:13:19;0.80;99.90
44513;DHT22;30219;50.588;9.504;2023-03-03T06:15:44;0.80;99.90
44513;DHT22;30219;50.588;9.504;2023-03-03T06:18:10;0.80;99.90
44513;DHT22;30219;50.588;9.504;2023-03-03T06:20:35;0.70;99.90
44513;DHT22;30219;50.588;9.504;2023-03-03T06:23:02;0.70;99.90
44513;DHT22;30219;50.588;9.504;2023-03-03T06:25:28;0.70;99.90
44513;DHT22;30219;50.588;9.504;2023-03-03T06:27:53;0.70;99.90
44513;DHT22;30219;50.588;9.504;2023-03-03T06:30:19;0.70;99.90
44513;DHT22;30219;50.588;9.504;2023-03-03T06:32:44;0.70;99.90
44513;DHT22;30219;50.588;9.504;2023-03-03T06:35:10;0.60;99.90
44513;DHT22;30219;50.588;9.504;2023-03-03T06:37:36;0.60;99.90
44513;DHT22;30219;50.588;9.504;2023-03-03T06:40:02;0.60;99.90
44513;DHT22;30219;50.588;9.504;2023-03-03T06:42:29;0.60;99.90
44513;DHT22;30219;50.588;9.504;2023-03-03T06:44:54;0.60;99.90
44513;DHT22;30219;50.588;9.504;2023-03-03T06:47:19;0.50;99.90
44513;DHT22;30219;50.588;9.504;2023-03-03T06:49:45;0.60;99.90
44513;DHT22;30219;50.588;9.504;2023-03-03T06:52:11;0.60;99.90
44513;DHT22;30219;50.588;9.504;2023-03-03T06:54:38;0.60;99.90
44513;DHT22;30219;50.588;9.504;2023-03-03T06:57:07;0.60;99.90
44513;DHT22;30219;50.588;9.504;2023-03-03T06:59:38;0.60;99.90
44513;DHT22;30219;50.588;9.504;2023-03-03T07:02:04;0.60;99.90
44513;DHT22;30219;50.588;9.504;2023-03-03T07:04:37;0.60;99.90
44513;DHT22;30219;50.588;9.504;2023-03-03T07:09:42;0.70;99.90
44513;DHT22;30219;50.588;9.504;2023-03-03T07:12:09;0.60;99.90
44513;DHT22;30219;50.588;9.504;2023-03-03T07:14:36;0.70;99.90
44513;DHT22;30219;50.588;9.504;2023-03-03T07:17:08;0.60;99.90
44513;DHT22;30219;50.588;9.504;2023-03-03T07:19:36;0.60;99.90
44513;DHT22;30219;50.588;9.504;2023-03-03T07:22:13;0.70;99.90
44513;DHT22;30219;50.588;9.504;2023-03-03T07:24:39;0.70;99.90
44513;DHT22;30219;50.588;9.504;2023-03-03T07:27:09;0.70;99.90
44513;DHT22;30219;50.588;9.504;2023-03-03T07:29:36;0.70;99.90
44513;DHT22;30219;50.588;9.504;2023-03-03T07:32:08;0.60;99.90
44513;DHT22;30219;50.588;9.504;2023-03-03T07:34:43;0.60;99.90
44513;DHT22;30219;50.588;9.504;2023-03-03T07:37:15;0.70;99.90
44513;DHT22;30219;50.588;9.504;2023-03-03T07:39:45;0.70;99.90
44513;DHT22;30219;50.588;9.504;2023-03-03T07:42:31;0.70;99.90
44513;DHT22;30219;50.588;9.504;2023-03-03T07:44:59;0.80;99.90
44513;DHT22;30219;50.588;9.504;2023-03-03T07:47:26;0.80;99.90
44513;DHT22;30219;50.588;9.504;2023-03-03T07:49:53;0.90;99.90
44513;DHT22;30219;50.588;9.504;2023-03-03T07:55:19;1.00;99.90
44513;DHT22;30219;50.588;9.504;2023-03-03T07:57:46;1.10;99.90
44513;DHT22;30219;50.588;9.504;2023-03-03T08:02:56;1.10;99.90
44513;DHT22;30219;50.588;9.504;2023-03-03T08:07:51;1.20;99.90
44513;DHT22;30219;50.588;9.504;2023-03-03T08:13:15;1.30;99.90
44513;DHT22;30219;50.588;9.504;2023-03-03T08:15:41;1.50;99.90
44513;DHT22;30219;50.588;9.504;2023-03-03T08:18:15;1.50;99.90
44513;DHT22;30219;50.588;9.504;2023-03-03T08:23:14;1.60;99.90
44513;DHT22;30219;50.588;9.504;2023-03-03T08:25:40;1.50;99.90
44513;DHT22;30219;50.588;9.504;2023-03-03T08:28:07;1.60;99.90
44513;DHT22;30219;50.588;9.504;2023-03-03T08:30:32;1.70;99.90
44513;DHT22;30219;50.588;9.504;2023-03-03T08:32:58;1.70;99.90
44513;DHT22;30219;50.588;9.504;2023-03-03T08:35:23;1.70;99.90
44513;DHT22;30219;50.588;9.504;2023-03-03T08:37:49;1.60;99.90
44513;DHT22;30219;50.588;9.504;2023-03-03T08:40:15;1.70;99.90
44513;DHT22;30219;50.588;9.504;2023-03-03T08:42:40;1.70;99.90
44513;DHT22;30219;50.588;9.504;2023-03-03T08:45:06;1.70;99.90
44513;DHT22;30219;50.588;9.504;2023-03-03T08:47:31;1.70;99.90
44513;DHT22;30219;50.588;9.504;2023-03-03T08:49:57;1.70;99.90
44513;DHT22;30219;50.588;9.504;2023-03-03T08:52:23;1.80;99.90
44513;DHT22;30219;50.588;9.504;2023-03-03T08:54:48;1.80;99.90
44513;DHT22;30219;50.588;9.504;2023-03-03T08:57:14;1.80;99.90
44513;DHT22;30219;50.588;9.504;2023-03-03T08:59:39;1.70;99.90
44513;DHT22;30219;50.588;9.504;2023-03-03T09:02:05;1.70;99.90
44513;DHT22;30219;50.588;9.504;2023-03-03T09:04:31;1.70;99.90
44513;DHT22;30219;50.588;9.504;2023-03-03T09:06:56;1.70;99.90
44513;DHT22;30219;50.588;9.504;2023-03-03T09:09:22;1.70;99.90
44513;DHT22;30219;50.588;9.504;2023-03-03T09:11:47;1.70;99.90
44513;DHT22;30219;50.588;9.504;2023-03-03T09:14:14;1.80;99.90
44513;DHT22;30219;50.588;9.504;2023-03-03T09:16:48;1.90;99.90
44513;DHT22;30219;50.588;9.504;2023-03-03T09:19:19;1.90;99.90
44513;DHT22;30219;50.588;9.504;2023-03-03T09:21:45;1.90;99.90
44513;DHT22;30219;50.588;9.504;2023-03-03T09:24:20;1.90;99.90
44513;DHT22;30219;50.588;9.504;2023-03-03T09:26:48;1.90;99.90
44513;DHT22;30219;50.588;9.504;2023-03-03T09:31:43;1.90;99.90
44513;DHT22;30219;50.588;9.504;2023-03-03T09:34:23;1.90;99.90
44513;DHT22;30219;50.588;9.504;2023-03-03T09:36:50;2.00;99.90
44513;DHT22;30219;50.588;9.504;2023-03-03T09:39:20;1.90;99.90
44513;DHT22;30219;50.588;9.504;2023-03-03T09:47:09;2.20;99.90
44513;DHT22;30219;50.588;9.504;2023-03-03T09:54:50;2.30;99.90
44513;DHT22;30219;50.588;9.504;2023-03-03T09:57:18;2.30;99.90
44513;DHT22;30219;50.588;9.504;2023-03-03T10:02:37;2.20;99.90
44513;DHT22;30219;50.588;9.504;2023-03-03T10:05:11;2.30;99.90
44513;DHT22;30219;50.588;9.504;2023-03-03T10:10:10;2.40;99.90
44513;DHT22;30219;50.588;9.504;2023-03-03T10:20:30;2.50;99.90
44513;DHT22;30219;50.588;9.504;2023-03-03T10:30:45;2.80;99.90
44513;DHT22;30219;50.588;9.504;2023-03-03T10:33:17;3.00;99.90
44513;DHT22;30219;50.588;9.504;2023-03-03T10:35:52;3.10;99.90
44513;DHT22;30219;50.588;9.504;2023-03-03T10:40:57;3.20;99.90
44513;DHT22;30219;50.588;9.504;2023-03-03T10:49:06;3.20;99.90
44513;DHT22;30219;50.588;9.504;2023-03-03T10:51:52;3.10;99.90
44513;DHT22;30219;50.588;9.504;2023-03-03T10:54:24;3.30;99.90
44513;DHT22;30219;50.588;9.504;2023-03-03T10:57:01;3.30;99.90
44513;DHT22;30219;50.588;9.504;2023-03-03T10:59:52;3.50;99.90
44513;DHT22;30219;50.588;9.504;2023-03-03T11:04:49;3.90;99.90
44513;DHT22;30219;50.588;9.504;2023-03-03T11:07:32;4.00;99.90
44513;DHT22;30219;50.588;9.504;2023-03-03T11:12:49;4.00;99.90
44513;DHT22;30219;50.588;9.504;2023-03-03T11:20:51;4.60;99.90
44513;DHT22;30219;50.588;9.504;2023-03-03T11:28:29;5.00;99.90
44513;DHT22;30219;50.588;9.504;2023-03-03T11:43:33;6.10;99.90
44513;DHT22;30219;50.588;9.504;2023-03-03T11:46:04;6.00;99.90
44513;DHT22;30219;50.588;9.504;2023-03-03T11:48:52;6.10;99.90
44513;DHT22;30219;50.588;9.504;2023-03-03T11:51:19;6.50;99.90
44513;DHT22;30219;50.588;9.504;2023-03-03T11:53:56;6.80;99.90
44513;DHT22;30219;50.588;9.504;2023-03-03T11:56:24;7.10;99.90
44513;DHT22;30219;50.588;9.504;2023-03-03T11:58:57;7.70;99.90
44513;DHT22;30219;50.588;9.504;2023-03-03T12:01:31;8.10;99.90
44513;DHT22;30219;50.588;9.504;2023-03-03T12:04:06;8.60;99.90
44513;DHT22;30219;50.588;9.504;2023-03-03T12:09:11;9.20;99.90
44513;DHT22;30219;50.588;9.504;2023-03-03T12:19:24;9.60;99.90
44513;DHT22;30219;50.588;9.504;2023-03-03T12:21:58;9.80;99.90
44513;DHT22;30219;50.588;9.504;2023-03-03T12:29:25;10.30;98.70
44513;DHT22;30219;50.588;9.504;2023-03-03T12:32:06;10.20;98.80
44513;DHT22;30219;50.588;9.504;2023-03-03T12:34:33;10.10;98.30
44513;DHT22;30219;50.588;9.504;2023-03-03T12:47:55;10.10;98.00
44513;DHT22;30219;50.588;9.504;2023-03-03T12:55:24;10.40;97.10
44513;DHT22;30219;50.588;9.504;2023-03-03T12:58:01;10.50;97.30
44513;DHT22;30219;50.588;9.504;2023-03-03T13:08:44;10.40;96.60
44513;DHT22;30219;50.588;9.504;2023-03-03T13:11:21;10.20;96.40
44513;DHT22;30219;50.588;9.504;2023-03-03T13:14:15;10.10;96.70
44513;DHT22;30219;50.588;9.504;2023-03-03T13:16:44;9.80;96.20
44513;DHT22;30219;50.588;9.504;2023-03-03T13:19:15;9.60;97.10
44513;DHT22;30219;50.588;9.504;2023-03-03T13:24:23;9.30;97.00
44513;DHT22;30219;50.588;9.504;2023-03-03T13:29:26;9.30;97.40
44513;DHT22;30219;50.588;9.504;2023-03-03T13:31:53;9.00;97.70
44513;DHT22;30219;50.588;9.504;2023-03-03T13:37:02;8.70;97.70
44513;DHT22;30219;50.588;9.504;2023-03-03T13:39:29;8.50;98.00
44513;DHT22;30219;50.588;9.504;2023-03-03T13:42:01;8.40;98.80
44513;DHT22;30219;50.588;9.504;2023-03-03T13:49:45;8.10;98.90
44513;DHT22;30219;50.588;9.504;2023-03-03T13:52:22;8.10;98.90
44513;DHT22;30219;50.588;9.504;2023-03-03T13:55:00;8.00;99.10
44513;DHT22;30219;50.588;9.504;2023-03-03T14:05:25;8.20;98.60
44513;DHT22;30219;50.588;9.504;2023-03-03T14:10:33;8.20;98.10
44513;DHT22;30219;50.588;9.504;2023-03-03T14:13:13;8.40;97.70
44513;DHT22;30219;50.588;9.504;2023-03-03T14:20:49;8.50;97.80
44513;DHT22;30219;50.588;9.504;2023-03-03T14:28:29;8.90;98.40
44513;DHT22;30219;50.588;9.504;2023-03-03T14:31:08;9.20;97.90
44513;DHT22;30219;50.588;9.504;2023-03-03T14:33:38;9.40;97.30
44513;DHT22;30219;50.588;9.504;2023-03-03T14:36:09;9.60;96.90
44513;DHT22;30219;50.588;9.504;2023-03-03T14:38:36;9.50;96.90
44513;DHT22;30219;50.588;9.504;2023-03-03T14:41:05;9.50;96.50
44513;DHT22;30219;50.588;9.504;2023-03-03T14:43:37;9.40;96.80
44513;DHT22;30219;50.588;9.504;2023-03-03T14:48:50;9.60;96.60
44513;DHT22;30219;50.588;9.504;2023-03-03T14:53:41;9.70;96.80
44513;DHT22;30219;50.588;9.504;2023-03-03T14:58:46;9.70;96.30
44513;DHT22;30219;50.588;9.504;2023-03-03T15:03:58;9.70;96.30
44513;DHT22;30219;50.588;9.504;2023-03-03T15:08:52;9.70;96.40
44513;DHT22;30219;50.588;9.504;2023-03-03T15:11:29;9.70;96.40
44513;DHT22;30219;50.588;9.504;2023-03-03T15:14:15;9.70;96.30
44513;DHT22;30219;50.588;9.504;2023-03-03T15:16:41;9.70;96.20
44513;DHT22;30219;50.588;9.504;2023-03-03T15:19:15;9.70;96.00
44513;DHT22;30219;50.588;9.504;2023-03-03T15:21:52;9.60;95.80
44513;DHT22;30219;50.588;9.504;2023-03-03T15:24:25;9.60;95.80
44513;DHT22;30219;50.588;9.504;2023-03-03T15:26:56;9.50;95.50
44513;DHT22;30219;50.588;9.504;2023-03-03T15:29:38;9.60;95.50
44513;DHT22;30219;50.588;9.504;2023-03-03T15:32:27;9.60;95.20
44513;DHT22;30219;50.588;9.504;2023-03-03T15:34:53;9.40;95.00
44513;DHT22;30219;50.588;9.504;2023-03-03T15:45:16;9.00;96.00
44513;DHT22;30219;50.588;9.504;2023-03-03T15:50:34;8.90;95.10
44513;DHT22;30219;50.588;9.504;2023-03-03T15:58:53;8.10;95.50
44513;DHT22;30219;50.588;9.504;2023-03-03T16:04:03;7.70;96.20
44513;DHT22;30219;50.588;9.504;2023-03-03T16:09:02;7.60;96.30
44513;DHT22;30219;50.588;9.504;2023-03-03T16:14:30;7.40;96.50
44513;DHT22;30219;50.588;9.504;2023-03-03T16:17:01;7.40;96.40
44513;DHT22;30219;50.588;9.504;2023-03-03T16:19:34;7.30;96.40
44513;DHT22;30219;50.588;9.504;2023-03-03T16:27:36;7.00;97.00
44513;DHT22;30219;50.588;9.504;2023-03-03T16:32:50;6.80;97.60
44513;DHT22;30219;50.588;9.504;2023-03-03T16:35:21;6.70;97.40
44513;DHT22;30219;50.588;9.504;2023-03-03T16:42:43;6.30;98.20
44513;DHT22;30219;50.588;9.504;2023-03-03T16:47:58;6.20;98.70
44513;DHT22;30219;50.588;9.504;2023-03-03T16:50:34;6.10;99.10
44513;DHT22;30219;50.588;9.504;2023-03-03T16:55:31;6.00;99.90
44513;DHT22;30219;50.588;9.504;2023-03-03T17:00:28;5.80;99.90
44513;DHT22;30219;50.588;9.504;2023-03-03T17:03:13;5.70;99.90
44513;DHT22;30219;50.588;9.504;2023-03-03T17:06:02;5.40;99.90
44513;DHT22;30219;50.588;9.504;2023-03-03T17:09:09;5.20;99.90
44513;DHT22;30219;50.588;9.504;2023-03-03T17:11:25;4.70;99.90
44513;DHT22;30219;50.588;9.504;2023-03-03T17:16:26;4.30;99.90
44513;DHT22;30219;50.588;9.504;2023-03-03T17:21:36;3.60;99.90
44513;DHT22;30219;50.588;9.504;2023-03-03T17:24:07;3.30;99.90
44513;DHT22;30219;50.588;9.504;2023-03-03T17:26:56;3.10;99.90
44513;DHT22;30219;50.588;9.504;2023-03-03T17:29:32;3.00;99.90
44513;DHT22;30219;50.588;9.504;2023-03-03T17:32:06;2.80;99.90
44513;DHT22;30219;50.588;9.504;2023-03-03T17:37:19;2.60;99.90
44513;DHT22;30219;50.588;9.504;2023-03-03T17:44:47;2.70;99.90
44513;DHT22;30219;50.588;9.504;2023-03-03T17:47:25;2.80;99.90
44513;DHT22;30219;50.588;9.504;2023-03-03T17:50:04;2.70;99.90
44513;DHT22;30219;50.588;9.504;2023-03-03T17:52:53;2.70;99.90
44513;DHT22;30219;50.588;9.504;2023-03-03T18:03:28;2.00;99.90
44513;DHT22;30219;50.588;9.504;2023-03-03T18:19:28;1.70;99.90
44513;DHT22;30219;50.588;9.504;2023-03-03T18:22:06;1.60;99.90
44513;DHT22;30219;50.588;9.504;2023-03-03T18:27:27;1.50;99.90
44513;DHT22;30219;50.588;9.504;2023-03-03T18:37:56;1.50;99.90
44513;DHT22;30219;50.588;9.504;2023-03-03T18:42:53;1.30;99.90
44513;DHT22;30219;50.588;9.504;2023-03-03T18:55:45;1.30;99.90
44513;DHT22;30219;50.588;9.504;2023-03-03T19:00:55;1.00;99.90
44513;DHT22;30219;50.588;9.504;2023-03-03T19:06:08;0.60;99.90
44513;DHT22;30219;50.588;9.504;2023-03-03T19:08:53;0.50;99.90
44513;DHT22;30219;50.588;9.504;2023-03-03T19:14:40;0.60;99.90
44513;DHT22;30219;50.588;9.504;2023-03-03T19:16:50;0.30;99.90
44513;DHT22;30219;50.588;9.504;2023-03-03T19:19:17;0.30;99.90
44513;DHT22;30219;50.588;9.504;2023-03-03T19:21:44;0.20;99.90
44513;DHT22;30219;50.588;9.504;2023-03-03T19:37:07;-0.10;99.90
44513;DHT22;30219;50.588;9.504;2023-03-03T19:39:38;-0.10;99.90
44513;DHT22;30219;50.588;9.504;2023-03-03T20:03:16;-0.60;99.90
44513;DHT22;30219;50.588;9.504;2023-03-03T20:08:20;-0.70;99.90
44513;DHT22;30219;50.588;9.504;2023-03-03T20:15:55;-0.70;99.90
44513;DHT22;30219;50.588;9.504;2023-03-03T20:26:41;-1.30;99.90
44513;DHT22;30219;50.588;9.504;2023-03-03T20:36:53;-1.00;99.90
44513;DHT22;30219;50.588;9.504;2023-03-03T20:39:31;-1.00;99.90
44513;DHT22;30219;50.588;9.504;2023-03-03T20:52:45;-1.20;99.90
44513;DHT22;30219;50.588;9.504;2023-03-03T20:55:23;-1.20;99.90
44513;DHT22;30219;50.588;9.504;2023-03-03T20:58:05;-1.30;99.90
44513;DHT22;30219;50.588;9.504;2023-03-03T21:03:05;-1.40;99.90
44513;DHT22;30219;50.588;9.504;2023-03-03T21:05:33;-1.40;99.90
44513;DHT22;30219;50.588;9.504;2023-03-03T21:08:03;-1.50;99.90
44513;DHT22;30219;50.588;9.504;2023-03-03T21:10:29;-1.50;99.90
44513;DHT22;30219;50.588;9.504;2023-03-03T21:12:56;-1.60;99.90
44513;DHT22;30219;50.588;9.504;2023-03-03T21:17:48;-1.50;99.90
44513;DHT22;30219;50.588;9.504;2023-03-03T21:22:48;-1.50;99.90
44513;DHT22;30219;50.588;9.504;2023-03-03T21:36:08;-1.10;99.90
44513;DHT22;30219;50.588;9.504;2023-03-03T21:38:34;-1.10;99.90
44513;DHT22;30219;50.588;9.504;2023-03-03T21:41:00;-1.10;99.90
44513;DHT22;30219;50.588;9.504;2023-03-03T21:43:35;-1.00;99.90
44513;DHT22;30219;50.588;9.504;2023-03-03T21:46:01;-1.00;99.90
44513;DHT22;30219;50.588;9.504;2023-03-03T21:48:26;-0.90;99.90
44513;DHT22;30219;50.588;9.504;2023-03-03T21:50:52;-0.80;99.90
44513;DHT22;30219;50.588;9.504;2023-03-03T21:53:17;-0.80;99.90
44513;DHT22;30219;50.588;9.504;2023-03-03T21:55:45;-0.80;99.90
44513;DHT22;30219;50.588;9.504;2023-03-03T21:58:13;-0.80;99.90
44513;DHT22;30219;50.588;9.504;2023-03-03T22:00:39;-0.70;99.90
44513;DHT22;30219;50.588;9.504;2023-03-03T22:03:04;-0.60;99.90
44513;DHT22;30219;50.588;9.504;2023-03-03T22:05:30;-0.50;99.90
44513;DHT22;30219;50.588;9.504;2023-03-03T22:07:55;-0.40;99.90
44513;DHT22;30219;50.588;9.504;2023-03-03T22:10:20;-0.30;99.90
44513;DHT22;30219;50.588;9.504;2023-03-03T22:12:46;-0.20;99.90
44513;DHT22;30219;50.588;9.504;2023-03-03T22:15:11;-0.10;99.90
44513;DHT22;30219;50.588;9.504;2023-03-03T22:17:37;-0.10;99.90
44513;DHT22;30219;50.588;9.504;2023-03-03T22:20:05;-0.10;99.90
44513;DHT22;30219;50.588;9.504;2023-03-03T22:22:30;-0.10;99.90
44513;DHT22;30219;50.588;9.504;2023-03-03T22:24:56;-0.10;99.90
44513;DHT22;30219;50.588;9.504;2023-03-03T22:27:21;-0.10;99.90